createdAt,value
2016-04-10T00:00:11.667Z,21.46
2016-04-10T00:01:11.670Z,21.37
2016-04-10T00:02:11.688Z,21.46
2016-04-10T00:03:11.675Z,21.45
2016-04-10T00:04:11.694Z,21.43
2016-04-10T00:05:11.697Z,21.46
2016-04-10T00:06:11.699Z,21.48
2016-04-10T00:07:11.702Z,21.41
2016-04-10T00:08:11.705Z,21.37
2016-04-10T00:09:11.708Z,21.45
2016-04-10T00:10:11.710Z,21.45
2016-04-10T00:11:11.729Z,21.46
2016-04-10T00:12:11.715Z,21.45
2016-04-10T00:13:11.718Z,21.4
2016-04-10T00:14:11.737Z,21.46
2016-04-10T00:15:11.739Z,21.45
2016-04-10T00:16:11.743Z,21.43
2016-04-10T00:17:11.745Z,21.45
2016-04-10T00:18:11.762Z,21.43
2016-04-10T00:19:11.766Z,21.38
2016-04-10T00:20:11.753Z,21.33
2016-04-10T00:21:11.771Z,21.37
2016-04-10T00:22:11.820Z,21.43
2016-04-10T00:23:11.792Z,21.34
2016-04-10T00:24:11.794Z,21.34
2016-04-10T00:25:11.782Z,21.4
2016-04-10T00:26:11.800Z,21.34
2016-04-10T00:27:11.818Z,21.37
2016-04-10T00:28:11.805Z,21.46
2016-04-10T00:29:11.652Z,21.41
2016-04-10T00:30:11.826Z,21.37
2016-04-10T00:31:11.828Z,21.41
2016-04-10T00:32:11.831Z,21.43
2016-04-10T00:33:11.834Z,21.4
2016-04-10T00:34:11.853Z,21.34
2016-04-10T00:35:11.839Z,21.4
2016-04-10T00:36:11.842Z,21.34
2016-04-10T00:37:12.017Z,21.43
2016-04-10T00:38:11.847Z,21.37
2016-04-10T00:39:11.867Z,21.38
2016-04-10T00:40:11.869Z,21.45
2016-04-10T00:41:11.872Z,21.37
2016-04-10T00:42:11.874Z,21.37
2016-04-10T00:43:11.893Z,21.41
2016-04-10T00:44:11.880Z,21.38
2016-04-10T00:45:11.882Z,21.37
2016-04-10T00:46:11.901Z,21.37
2016-04-10T00:47:11.903Z,21.41
2016-04-10T00:48:11.906Z,21.4
2016-04-10T00:49:11.909Z,21.41
2016-04-10T00:50:11.927Z,21.37
2016-04-10T00:51:11.914Z,21.38
2016-04-10T00:52:12.417Z,21.34
2016-04-10T00:53:11.935Z,21.37
2016-04-10T00:54:11.938Z,21.37
2016-04-10T00:55:11.940Z,21.4
2016-04-10T00:56:11.959Z,21.41
2016-04-10T00:57:11.977Z,21.37
2016-04-10T00:58:11.964Z,21.36
2016-04-10T00:59:11.983Z,21.4
2016-04-10T01:00:11.985Z,21.34
2016-04-10T01:01:11.972Z,21.37
2016-04-10T01:02:11.991Z,21.37
2016-04-10T01:03:11.994Z,21.34
2016-04-10T01:04:11.997Z,21.37
2016-04-10T01:05:11.999Z,21.38
2016-04-10T01:06:12.043Z,21.38
2016-04-10T01:07:12.115Z,21.34
2016-04-10T01:08:12.128Z,21.4
2016-04-10T01:09:12.218Z,21.34
2016-04-10T01:10:12.244Z,21.33
2016-04-10T01:11:12.240Z,21.37
2016-04-10T01:12:12.256Z,21.34
2016-04-10T01:13:12.274Z,21.37
2016-04-10T01:14:12.323Z,21.37
2016-04-10T01:15:12.324Z,21.37
2016-04-10T01:16:12.350Z,21.38
2016-04-10T01:17:12.343Z,21.38
2016-04-10T01:18:12.351Z,21.31
2016-04-10T01:19:12.358Z,21.34
2016-04-10T01:20:12.381Z,21.37
2016-04-10T01:21:12.387Z,21.34
2016-04-10T01:22:12.423Z,21.41
2016-04-10T01:23:12.396Z,21.34
2016-04-10T01:24:12.400Z,21.37
2016-04-10T01:25:12.405Z,21.37
2016-04-10T01:26:12.410Z,21.34
2016-04-10T01:27:12.428Z,21.4
2016-04-10T01:28:12.432Z,21.38
2016-04-10T01:29:12.436Z,21.36
2016-04-10T01:30:12.439Z,21.3
2016-04-10T01:31:12.442Z,21.33
2016-04-10T01:32:12.461Z,21.37
2016-04-10T01:33:12.448Z,21.33
2016-04-10T01:34:12.452Z,21.33
2016-04-10T01:35:12.470Z,21.36
2016-04-10T01:36:12.488Z,21.36
2016-04-10T01:37:12.476Z,21.36
2016-04-10T01:38:12.493Z,21.34
2016-04-10T01:39:12.482Z,21.33
2016-04-10T01:40:12.484Z,21.3
2016-04-10T01:41:12.815Z,21.4
2016-04-10T01:42:12.504Z,21.36
2016-04-10T01:43:12.507Z,21.33
2016-04-10T01:44:12.510Z,21.36
2016-04-10T01:45:12.512Z,21.33
2016-04-10T01:46:12.829Z,21.38
2016-04-10T01:47:12.550Z,21.37
2016-04-10T01:48:12.537Z,21.36
2016-04-10T01:49:12.540Z,21.36
2016-04-10T01:50:12.761Z,21.37
2016-04-10T01:51:12.529Z,21.36
2016-04-10T01:52:12.547Z,21.31
2016-04-10T01:53:12.550Z,21.23
2016-04-10T01:54:12.569Z,21.3
2016-04-10T01:55:12.586Z,21.25
2016-04-10T01:56:12.574Z,21.38
2016-04-10T01:57:12.608Z,21.37
2016-04-10T01:58:12.594Z,21.36
2016-04-10T01:59:12.582Z,21.41
2016-04-10T02:00:12.835Z,21.36
2016-04-10T02:01:12.603Z,21.36
2016-04-10T02:02:12.605Z,21.34
2016-04-10T02:03:12.608Z,21.41
2016-04-10T02:04:12.611Z,21.36
2016-04-10T02:05:12.629Z,21.38
2016-04-10T02:06:12.632Z,21.38
2016-04-10T02:07:12.618Z,21.36
2016-04-10T02:08:12.637Z,21.31
2016-04-10T02:09:12.641Z,21.36
2016-04-10T02:10:12.643Z,21.36
2016-04-10T02:11:12.240Z,21.36
2016-04-10T02:12:12.648Z,21.3
2016-04-10T02:13:12.651Z,21.34
2016-04-10T02:14:12.919Z,21.36
2016-04-10T02:15:12.875Z,21.34
2016-04-10T02:16:12.674Z,21.36
2016-04-10T02:17:12.677Z,21.37
2016-04-10T02:18:12.695Z,21.37
2016-04-10T02:19:12.996Z,21.34
2016-04-10T02:20:11.967Z,21.36
2016-04-10T02:21:12.860Z,21.23
2016-04-10T02:22:12.706Z,21.3
2016-04-10T02:23:12.865Z,21.34
2016-04-10T02:24:12.728Z,21.33
2016-04-10T02:25:12.730Z,21.4
2016-04-10T02:26:13.076Z,21.34
2016-04-10T02:27:12.750Z,21.36
2016-04-10T02:28:12.988Z,21.36
2016-04-10T02:29:13.084Z,21.37
2016-04-10T02:30:12.744Z,21.33
2016-04-10T02:31:12.747Z,21.25
2016-04-10T02:32:13.108Z,21.25
2016-04-10T02:33:12.907Z,21.3
2016-04-10T02:34:12.770Z,21.33
2016-04-10T02:35:12.788Z,21.34
2016-04-10T02:36:13.135Z,21.34
2016-04-10T02:37:12.871Z,21.25
2016-04-10T02:38:12.812Z,21.34
2016-04-10T02:39:12.799Z,21.23
2016-04-10T02:40:13.051Z,21.27
2016-04-10T02:41:12.804Z,21.43
2016-04-10T02:42:13.057Z,21.25
2016-04-10T02:43:12.810Z,21.27
2016-04-10T02:44:12.813Z,21.37
2016-04-10T02:45:12.831Z,21.28
2016-04-10T02:46:12.834Z,21.31
2016-04-10T02:47:12.836Z,21.3
2016-04-10T02:48:12.839Z,21.37
2016-04-10T02:49:13.185Z,21.3
2016-04-10T02:50:12.844Z,21.31
2016-04-10T02:51:13.159Z,21.33
2016-04-10T02:52:12.864Z,21.25
2016-04-10T02:53:12.867Z,21.33
2016-04-10T02:54:13.136Z,21.3
2016-04-10T02:55:13.029Z,21.36
2016-04-10T02:56:12.876Z,21.23
2016-04-10T02:57:13.238Z,21.3
2016-04-10T02:58:12.897Z,21.27
2016-04-10T02:59:12.915Z,21.31
2016-04-10T03:00:13.152Z,21.27
2016-04-10T03:01:12.905Z,21.22
2016-04-10T03:02:13.172Z,21.25
2016-04-10T03:03:12.925Z,21.25
2016-04-10T03:04:12.929Z,21.3
2016-04-10T03:05:12.931Z,21.28
2016-04-10T03:06:13.121Z,21.33
2016-04-10T03:07:12.936Z,21.3
2016-04-10T03:08:13.174Z,21.23
2016-04-10T03:09:12.992Z,21.27
2016-04-10T03:10:12.947Z,21.19
2016-04-10T03:11:12.966Z,21.27
2016-04-10T03:12:12.969Z,21.28
2016-04-10T03:13:12.971Z,21.27
2016-04-10T03:14:13.161Z,21.25
2016-04-10T03:15:13.070Z,21.27
2016-04-10T03:16:12.979Z,21.27
2016-04-10T03:17:12.998Z,21.33
2016-04-10T03:18:12.985Z,21.25
2016-04-10T03:19:13.004Z,21.27
2016-04-10T03:20:13.146Z,21.36
2016-04-10T03:21:13.009Z,21.31
2016-04-10T03:22:13.152Z,21.31
2016-04-10T03:23:13.107Z,21.25
2016-04-10T03:24:13.017Z,21.3
2016-04-10T03:25:13.019Z,21.28
2016-04-10T03:26:13.023Z,21.33
2016-04-10T03:27:13.134Z,21.28
2016-04-10T03:28:13.043Z,21.34
2016-04-10T03:29:13.296Z,21.27
2016-04-10T03:30:13.048Z,21.25
2016-04-10T03:31:12.895Z,21.31
2016-04-10T03:32:13.117Z,21.28
2016-04-10T03:33:13.072Z,21.3
2016-04-10T03:34:13.122Z,21.23
2016-04-10T03:35:13.077Z,21.34
2016-04-10T03:36:13.220Z,21.33
2016-04-10T03:37:13.083Z,21.25
2016-04-10T03:38:13.007Z,21.34
2016-04-10T03:39:13.386Z,21.31
2016-04-10T03:40:13.106Z,21.25
2016-04-10T03:41:13.219Z,21.27
2016-04-10T03:42:13.128Z,21.33
2016-04-10T03:43:13.271Z,21.23
2016-04-10T03:44:13.117Z,21.34
2016-04-10T03:45:13.119Z,21.31
2016-04-10T03:46:13.232Z,21.31
2016-04-10T03:47:13.141Z,21.34
2016-04-10T03:48:13.144Z,21.33
2016-04-10T03:49:13.147Z,21.3
2016-04-10T03:50:13.164Z,21.34
2016-04-10T03:51:13.168Z,21.22
2016-04-10T03:52:13.139Z,21.25
2016-04-10T03:53:13.423Z,21.3
2016-04-10T03:54:13.379Z,21.25
2016-04-10T03:55:13.225Z,21.31
2016-04-10T03:56:13.181Z,21.3
2016-04-10T03:57:13.199Z,21.31
2016-04-10T03:58:13.187Z,21.31
2016-04-10T03:59:13.454Z,21.25
2016-04-10T04:00:13.206Z,21.19
2016-04-10T04:01:13.209Z,21.31
2016-04-10T04:02:13.213Z,21.28
2016-04-10T04:03:13.215Z,21.36
2016-04-10T04:04:13.218Z,21.31
2016-04-10T04:05:13.220Z,21.19
2016-04-10T04:06:13.583Z,21.38
2016-04-10T04:07:13.289Z,21.27
2016-04-10T04:08:13.666Z,21.3
2016-04-10T04:09:13.263Z,21.3
2016-04-10T04:10:13.297Z,21.31
2016-04-10T04:11:13.253Z,21.31
2016-04-10T04:12:13.615Z,21.33
2016-04-10T04:13:13.430Z,21.25
2016-04-10T04:14:13.277Z,21.31
2016-04-10T04:15:13.294Z,21.34
2016-04-10T04:16:13.282Z,21.33
2016-04-10T04:17:13.394Z,21.25
2016-04-10T04:18:13.287Z,21.23
2016-04-10T04:19:13.321Z,21.31
2016-04-10T04:20:13.307Z,21.33
2016-04-10T04:21:13.404Z,21.34
2016-04-10T04:22:13.298Z,21.36
2016-04-10T04:23:13.691Z,21.37
2016-04-10T04:24:13.335Z,21.16
2016-04-10T04:25:13.524Z,21.31
2016-04-10T04:26:13.324Z,21.25
2016-04-10T04:27:13.343Z,21.27
2016-04-10T04:28:13.345Z,21.33
2016-04-10T04:29:13.395Z,21.31
2016-04-10T04:30:13.366Z,21.3
2016-04-10T04:31:13.368Z,21.22
2016-04-10T04:32:13.715Z,21.22
2016-04-10T04:33:13.374Z,21.22
2016-04-10T04:34:13.690Z,21.25
2016-04-10T04:35:13.645Z,21.31
2016-04-10T04:36:13.382Z,21.31
2016-04-10T04:37:13.400Z,21.22
2016-04-10T04:38:13.466Z,21.31
2016-04-10T04:39:13.406Z,21.34
2016-04-10T04:40:13.502Z,21.34
2016-04-10T04:41:13.411Z,21.25
2016-04-10T04:42:13.633Z,21.27
2016-04-10T04:43:13.417Z,21.25
2016-04-10T04:44:13.419Z,21.23
2016-04-10T04:45:13.437Z,21.34
2016-04-10T04:46:13.488Z,21.34
2016-04-10T04:47:13.443Z,21.33
2016-04-10T04:48:13.648Z,21.3
2016-04-10T04:49:13.464Z,21.33
2016-04-10T04:50:13.549Z,21.34
2016-04-10T04:51:13.459Z,21.33
2016-04-10T04:52:13.665Z,21.25
2016-04-10T04:53:13.604Z,21.31
2016-04-10T04:54:13.467Z,21.27
2016-04-10T04:55:13.485Z,21.3
2016-04-10T04:56:13.535Z,21.19
2016-04-10T04:57:13.490Z,21.25
2016-04-10T04:58:13.492Z,21.21
2016-04-10T04:59:13.496Z,21.38
2016-04-10T05:00:13.701Z,21.27
2016-04-10T05:01:13.516Z,21.3
2016-04-10T05:02:13.520Z,21.3
2016-04-10T05:03:13.522Z,21.28
2016-04-10T05:04:13.728Z,21.3
2016-04-10T05:05:13.528Z,21.38
2016-04-10T05:06:13.592Z,21.27
2016-04-10T05:07:13.533Z,21.33
2016-04-10T05:08:13.739Z,21.23
2016-04-10T05:09:13.663Z,21.34
2016-04-10T05:10:13.556Z,21.38
2016-04-10T05:11:13.700Z,21.25
2016-04-10T05:12:13.561Z,21.38
2016-04-10T05:13:13.581Z,21.23
2016-04-10T05:14:13.677Z,21.3
2016-04-10T05:15:13.570Z,21.23
2016-04-10T05:16:13.588Z,21.36
2016-04-10T05:17:13.591Z,21.28
2016-04-10T05:18:13.593Z,21.3
2016-04-10T05:19:13.597Z,21.27
2016-04-10T05:20:13.599Z,21.27
2016-04-10T05:21:13.617Z,21.31
2016-04-10T05:22:13.605Z,21.25
2016-04-10T05:23:13.685Z,21.33
2016-04-10T05:24:13.625Z,21.27
2016-04-10T05:25:13.676Z,21.25
2016-04-10T05:26:13.662Z,21.33
2016-04-10T05:27:13.649Z,21.31
2016-04-10T05:28:13.651Z,21.33
2016-04-10T05:29:13.654Z,21.31
2016-04-10T05:30:13.767Z,21.31
2016-04-10T05:31:13.659Z,21.25
2016-04-10T05:32:13.662Z,21.3
2016-04-10T05:33:13.728Z,21.25
2016-04-10T05:34:13.714Z,21.3
2016-04-10T05:35:13.687Z,21.36
2016-04-10T05:36:13.689Z,21.28
2016-04-10T05:37:13.691Z,21.37
2016-04-10T05:38:13.711Z,21.25
2016-04-10T05:39:13.713Z,21.28
2016-04-10T05:40:13.699Z,21.31
2016-04-10T05:41:13.703Z,21.25
2016-04-10T05:42:13.721Z,21.31
2016-04-10T05:43:13.724Z,21.31
2016-04-10T05:44:13.727Z,21.3
2016-04-10T05:45:13.729Z,21.33
2016-04-10T05:46:13.747Z,21.25
2016-04-10T05:47:13.749Z,21.33
2016-04-10T05:48:13.737Z,21.27
2016-04-10T05:49:13.755Z,21.31
2016-04-10T05:50:13.758Z,21.3
2016-04-10T05:51:13.777Z,21.3
2016-04-10T05:52:13.763Z,21.27
2016-04-10T05:53:13.766Z,21.23
2016-04-10T05:54:13.784Z,21.25
2016-04-10T05:55:13.787Z,21.27
2016-04-10T05:56:13.805Z,21.22
2016-04-10T05:57:13.792Z,21.33
2016-04-10T05:58:13.811Z,21.33
2016-04-10T05:59:13.798Z,21.31
2016-04-10T06:00:13.815Z,21.34
2016-04-10T06:01:13.818Z,21.27
2016-04-10T06:02:13.837Z,21.27
2016-04-10T06:03:13.839Z,21.31
2016-04-10T06:04:13.826Z,21.38
2016-04-10T06:05:13.829Z,21.33
2016-04-10T06:06:13.848Z,21.3
2016-04-10T06:07:13.850Z,21.37
2016-04-10T06:08:13.853Z,21.38
2016-04-10T06:09:13.856Z,21.36
2016-04-10T06:10:13.858Z,21.25
2016-04-10T06:11:13.720Z,21.33
2016-04-10T06:12:13.864Z,21.36
2016-04-10T06:13:13.866Z,21.36
2016-04-10T06:14:13.901Z,21.37
2016-04-10T06:15:13.903Z,21.27
2016-04-10T06:16:13.890Z,21.37
2016-04-10T06:17:13.893Z,21.33
2016-04-10T06:18:13.896Z,21.33
2016-04-10T06:19:13.741Z,21.36
2016-04-10T06:20:13.916Z,21.36
2016-04-10T06:21:13.919Z,21.34
2016-04-10T06:22:13.922Z,21.36
2016-04-10T06:23:19.818Z,21.41
2016-04-10T06:24:13.686Z,21.34
2016-04-10T06:25:13.928Z,21.36
2016-04-10T06:26:17.858Z,21.36
2016-04-10T06:27:13.944Z,21.36
2016-04-10T06:28:13.947Z,21.33
2016-04-10T06:29:13.793Z,21.31
2016-04-10T06:30:13.952Z,21.36
2016-04-10T06:31:13.955Z,21.34
2016-04-10T06:32:13.973Z,21.34
2016-04-10T06:33:13.976Z,21.33
2016-04-10T06:34:13.979Z,21.33
2016-04-10T06:35:13.982Z,21.34
2016-04-10T06:36:13.999Z,21.38
2016-04-10T06:37:13.987Z,21.38
2016-04-10T06:38:14.005Z,21.43
2016-04-10T06:39:13.992Z,21.4
2016-04-10T06:40:14.009Z,21.37
2016-04-10T06:41:13.998Z,21.37
2016-04-10T06:42:14.015Z,21.34
2016-04-10T06:43:14.034Z,21.38
2016-04-10T06:44:14.021Z,21.43
2016-04-10T06:45:14.023Z,21.43
2016-04-10T06:46:14.042Z,21.4
2016-04-10T06:47:14.045Z,21.31
2016-04-10T06:48:14.047Z,21.4
2016-04-10T06:49:14.050Z,21.4
2016-04-10T06:50:14.069Z,21.43
2016-04-10T06:51:14.056Z,21.49
2016-04-10T06:52:14.074Z,21.38
2016-04-10T06:53:14.061Z,21.45
2016-04-10T06:54:13.923Z,21.37
2016-04-10T06:55:13.941Z,21.46
2016-04-10T06:56:14.085Z,21.45
2016-04-10T06:57:14.087Z,21.46
2016-04-10T06:58:14.106Z,21.48
2016-04-10T06:59:14.108Z,21.48
2016-04-10T07:00:14.110Z,21.43
2016-04-10T07:01:14.130Z,21.46
2016-04-10T07:02:14.132Z,21.45
2016-04-10T07:03:14.134Z,21.45
2016-04-10T07:04:14.122Z,21.48
2016-04-10T07:05:14.141Z,21.46
2016-04-10T07:06:14.127Z,21.4
2016-04-10T07:07:14.145Z,21.49
2016-04-10T07:08:14.165Z,21.45
2016-04-10T07:09:13.995Z,21.49
2016-04-10T07:10:14.184Z,21.45
2016-04-10T07:11:14.172Z,21.48
2016-04-10T07:12:14.175Z,21.52
2016-04-10T07:13:14.177Z,21.48
2016-04-10T07:14:14.181Z,21.48
2016-04-10T07:15:14.198Z,21.56
2016-04-10T07:16:14.201Z,21.46
2016-04-10T07:17:14.203Z,21.52
2016-04-10T07:18:14.206Z,21.48
2016-04-10T07:19:14.209Z,21.51
2016-04-10T07:20:14.211Z,21.55
2016-04-10T07:21:14.214Z,21.59
2016-04-10T07:22:14.217Z,21.48
2016-04-10T07:23:14.235Z,21.45
2016-04-10T07:24:14.223Z,21.48
2016-04-10T07:25:14.225Z,21.52
2016-04-10T07:26:14.244Z,21.53
2016-04-10T07:27:14.246Z,21.56
2016-04-10T07:28:14.280Z,21.56
2016-04-10T07:29:14.252Z,21.56
2016-04-10T07:30:14.254Z,21.58
2016-04-10T07:31:14.272Z,21.56
2016-04-10T07:32:14.275Z,21.58
2016-04-10T07:33:14.277Z,21.56
2016-04-10T07:34:14.297Z,21.61
2016-04-10T07:35:14.299Z,21.59
2016-04-10T07:36:14.318Z,21.58
2016-04-10T07:37:14.304Z,21.58
2016-04-10T07:38:14.323Z,21.58
2016-04-10T07:39:14.309Z,21.61
2016-04-10T07:40:14.312Z,21.68
2016-04-10T07:41:14.314Z,21.58
2016-04-10T07:42:14.318Z,21.62
2016-04-10T07:43:14.336Z,21.61
2016-04-10T07:44:14.339Z,21.64
2016-04-10T07:45:14.342Z,21.66
2016-04-10T07:46:14.344Z,21.64
2016-04-10T07:47:14.362Z,21.71
2016-04-10T07:48:14.350Z,21.67
2016-04-10T07:49:14.368Z,21.68
2016-04-10T07:50:14.355Z,21.66
2016-04-10T07:51:14.372Z,21.66
2016-04-10T07:52:14.375Z,21.71
2016-04-10T07:53:14.378Z,21.67
2016-04-10T07:54:14.381Z,21.7
2016-04-10T07:55:14.384Z,21.67
2016-04-10T07:56:14.402Z,21.7
2016-04-10T07:57:14.405Z,21.76
2016-04-10T07:58:14.408Z,21.78
2016-04-10T07:59:14.426Z,21.77
2016-04-10T08:00:14.429Z,21.78
2016-04-10T08:01:14.416Z,21.71
2016-04-10T08:02:14.434Z,21.71
2016-04-10T08:03:14.453Z,21.74
2016-04-10T08:04:14.440Z,21.74
2016-04-10T08:05:14.443Z,21.76
2016-04-10T08:06:14.445Z,21.78
2016-04-10T08:07:14.463Z,21.8
2016-04-10T08:08:14.465Z,21.76
2016-04-10T08:09:14.453Z,21.78
2016-04-10T08:10:14.471Z,21.77
2016-04-10T08:11:14.489Z,21.76
2016-04-10T08:12:14.493Z,21.92
2016-04-10T08:13:14.479Z,21.86
2016-04-10T08:14:14.497Z,21.83
2016-04-10T08:15:14.501Z,21.85
2016-04-10T08:16:14.503Z,21.86
2016-04-10T08:17:14.505Z,21.86
2016-04-10T08:18:14.508Z,21.9
2016-04-10T08:19:14.526Z,21.85
2016-04-10T08:20:14.514Z,21.85
2016-04-10T08:21:14.517Z,21.85
2016-04-10T08:22:14.534Z,21.86
2016-04-10T08:23:14.537Z,21.93
2016-04-10T08:24:14.555Z,21.94
2016-04-10T08:25:14.558Z,21.89
2016-04-10T08:26:14.560Z,21.92
2016-04-10T08:27:14.580Z,22
2016-04-10T08:28:14.582Z,21.97
2016-04-10T08:29:14.585Z,22
2016-04-10T08:30:14.588Z,21.9
2016-04-10T08:31:14.574Z,21.96
2016-04-10T08:32:14.608Z,21.86
2016-04-10T08:33:14.596Z,21.99
2016-04-10T08:34:14.613Z,22.05
2016-04-10T08:35:14.601Z,22.07
2016-04-10T08:36:14.635Z,22.04
2016-04-10T08:37:14.606Z,22.05
2016-04-10T08:38:14.641Z,22.12
2016-04-10T08:39:14.627Z,22
2016-04-10T08:40:14.629Z,22.11
2016-04-10T08:41:14.508Z,22.05
2016-04-10T08:42:14.651Z,22.08
2016-04-10T08:43:14.653Z,22.04
2016-04-10T08:44:14.657Z,22.11
2016-04-10T08:45:14.675Z,22.15
2016-04-10T08:46:14.678Z,22.15
2016-04-10T08:47:14.681Z,22.14
2016-04-10T08:48:14.526Z,22.2
2016-04-10T08:49:14.685Z,22.18
2016-04-10T08:50:14.704Z,22.16
2016-04-10T08:51:14.691Z,22.22
2016-04-10T08:52:14.693Z,22.23
2016-04-10T08:53:14.711Z,22.2
2016-04-10T08:54:14.761Z,22.23
2016-04-10T08:55:14.717Z,22.23
2016-04-10T08:56:14.719Z,22.2
2016-04-10T08:57:14.723Z,22.23
2016-04-10T08:58:14.741Z,22.22
2016-04-10T08:59:14.743Z,22.23
2016-04-10T09:00:14.747Z,22.22
2016-04-10T09:01:14.749Z,22.2
2016-04-10T09:02:14.767Z,22.23
2016-04-10T09:03:14.769Z,22.2
2016-04-10T09:04:14.772Z,22.18
2016-04-10T09:05:14.760Z,22.16
2016-04-10T09:06:14.777Z,22.16
2016-04-10T09:07:14.780Z,22.16
2016-04-10T09:08:14.815Z,22.23
2016-04-10T09:09:14.785Z,22.22
2016-04-10T09:10:14.805Z,22.14
2016-04-10T09:11:14.823Z,22.11
2016-04-10T09:12:14.809Z,22.23
2016-04-10T09:13:14.828Z,22.22
2016-04-10T09:14:14.831Z,22.26
2016-04-10T09:15:15.427Z,22.22
2016-04-10T09:16:14.836Z,22.23
2016-04-10T09:17:14.839Z,22.23
2016-04-10T09:18:14.857Z,22.31
2016-04-10T09:19:14.844Z,22.27
2016-04-10T09:20:14.878Z,22.31
2016-04-10T09:21:14.864Z,22.33
2016-04-10T09:22:14.868Z,22.36
2016-04-10T09:23:14.870Z,22.38
2016-04-10T09:24:15.217Z,22.38
2016-04-10T09:25:14.876Z,22.36
2016-04-10T09:26:14.894Z,22.38
2016-04-10T09:27:14.881Z,22.36
2016-04-10T09:28:14.899Z,22.36
2016-04-10T09:29:14.918Z,22.44
2016-04-10T09:30:14.905Z,22.42
2016-04-10T09:31:14.924Z,22.39
2016-04-10T09:32:15.160Z,22.49
2016-04-10T09:33:14.944Z,22.48
2016-04-10T09:34:14.947Z,22.52
2016-04-10T09:35:14.934Z,22.39
2016-04-10T09:36:14.952Z,22.46
2016-04-10T09:37:14.955Z,22.45
2016-04-10T09:38:14.958Z,22.55
2016-04-10T09:39:15.351Z,22.55
2016-04-10T09:40:14.979Z,22.54
2016-04-10T09:41:14.982Z,22.54
2016-04-10T09:42:14.984Z,22.59
2016-04-10T09:43:14.987Z,22.59
2016-04-10T09:44:14.990Z,22.52
2016-04-10T09:45:15.007Z,22.57
2016-04-10T09:46:14.995Z,22.57
2016-04-10T09:47:15.013Z,22.59
2016-04-10T09:48:15.015Z,22.6
2016-04-10T09:49:15.018Z,22.57
2016-04-10T09:50:15.037Z,22.57
2016-04-10T09:51:15.040Z,22.57
2016-04-10T09:52:15.042Z,22.55
2016-04-10T09:53:15.045Z,22.6
2016-04-10T09:54:15.125Z,22.55
2016-04-10T09:55:15.050Z,22.69
2016-04-10T09:56:15.053Z,22.69
2016-04-10T09:57:15.056Z,22.7
2016-04-10T09:58:15.075Z,22.64
2016-04-10T09:59:15.077Z,22.69
2016-04-10T10:00:15.080Z,22.75
2016-04-10T10:01:15.097Z,22.82
2016-04-10T10:02:15.085Z,22.91
2016-04-10T10:03:15.103Z,22.91
2016-04-10T10:04:15.105Z,22.89
2016-04-10T10:05:15.108Z,22.88
2016-04-10T10:06:15.127Z,22.89
2016-04-10T10:07:15.114Z,22.94
2016-04-10T10:08:15.133Z,22.89
2016-04-10T10:09:15.123Z,22.94
2016-04-10T10:10:15.142Z,22.92
2016-04-10T10:11:15.145Z,22.94
2016-04-10T10:12:15.177Z,23.01
2016-04-10T10:13:15.237Z,23.04
2016-04-10T10:14:15.266Z,23.03
2016-04-10T10:15:15.326Z,23.03
2016-04-10T10:16:15.371Z,23.07
2016-04-10T10:17:15.413Z,23.07
2016-04-10T10:18:15.431Z,23.07
2016-04-10T10:19:15.449Z,23.07
2016-04-10T10:20:15.467Z,23.07
2016-04-10T10:21:15.485Z,23.1
2016-04-10T10:22:15.528Z,23.06
2016-04-10T10:23:15.521Z,23.07
2016-04-10T10:24:15.576Z,23.04
2016-04-10T10:25:15.537Z,23.01
2016-04-10T10:26:15.545Z,23
2016-04-10T10:27:15.550Z,23.09
2016-04-10T10:28:15.570Z,23.06
2016-04-10T10:29:15.575Z,23.22
2016-04-10T10:30:15.579Z,23.18
2016-04-10T10:31:15.584Z,23.26
2016-04-10T10:32:15.588Z,23.22
2016-04-10T10:33:15.608Z,23.28
2016-04-10T10:34:15.611Z,23.26
2016-04-10T10:35:15.630Z,23.28
2016-04-10T10:36:15.618Z,23.26
2016-04-10T10:37:15.637Z,23.1
2016-04-10T10:38:15.640Z,23.14
2016-04-10T10:39:15.752Z,23.18
2016-04-10T10:40:15.646Z,23.1
2016-04-10T10:41:15.664Z,23.16
2016-04-10T10:42:15.667Z,23.16
2016-04-10T10:43:15.669Z,23.12
2016-04-10T10:44:15.688Z,23.14
2016-04-10T10:45:15.691Z,23.19
2016-04-10T10:46:15.678Z,23.18
2016-04-10T10:47:15.697Z,23.15
2016-04-10T10:48:15.699Z,23.22
2016-04-10T10:49:15.702Z,23.32
2016-04-10T10:50:15.719Z,23.32
2016-04-10T10:51:15.722Z,23.37
2016-04-10T10:52:15.725Z,23.35
2016-04-10T10:53:15.727Z,23.55
2016-04-10T10:54:15.762Z,23.48
2016-04-10T10:55:15.748Z,23.5
2016-04-10T10:56:15.751Z,23.5
2016-04-10T10:57:15.754Z,23.53
2016-04-10T10:58:15.772Z,23.53
2016-04-10T10:59:15.775Z,23.59
2016-04-10T11:00:15.778Z,23.55
2016-04-10T11:01:15.781Z,23.53
2016-04-10T11:02:15.627Z,23.47
2016-04-10T11:03:15.786Z,23.56
2016-04-10T11:04:15.804Z,23.55
2016-04-10T11:05:15.807Z,23.52
2016-04-10T11:06:15.809Z,23.48
2016-04-10T11:07:15.812Z,23.45
2016-04-10T11:08:15.831Z,23.45
2016-04-10T11:09:15.834Z,23.63
2016-04-10T11:10:15.837Z,23.6
2016-04-10T11:11:15.855Z,23.56
2016-04-10T11:12:15.842Z,23.55
2016-04-10T11:13:15.861Z,23.56
2016-04-10T11:14:15.863Z,23.52
2016-04-10T11:15:15.881Z,23.56
2016-04-10T11:16:15.883Z,23.67
2016-04-10T11:17:15.886Z,23.67
2016-04-10T11:18:15.889Z,23.67
2016-04-10T11:19:15.907Z,23.75
2016-04-10T11:20:15.910Z,23.71
2016-04-10T11:21:15.912Z,23.72
2016-04-10T11:22:15.915Z,23.66
2016-04-10T11:23:15.918Z,23.63
2016-04-10T11:24:15.921Z,23.62
2016-04-10T11:25:15.939Z,23.64
2016-04-10T11:26:15.941Z,23.64
2016-04-10T11:27:15.960Z,23.66
2016-04-10T11:28:15.946Z,23.67
2016-04-10T11:29:15.949Z,23.62
2016-04-10T11:30:15.968Z,23.62
2016-04-10T11:31:15.970Z,23.64
2016-04-10T11:32:15.973Z,23.72
2016-04-10T11:33:15.975Z,23.72
2016-04-10T11:34:15.994Z,23.74
2016-04-10T11:35:15.997Z,23.75
2016-04-10T11:36:16.000Z,23.78
2016-04-10T11:37:16.017Z,23.79
2016-04-10T11:38:16.021Z,23.79
2016-04-10T11:39:16.023Z,23.75
2016-04-10T11:40:16.042Z,23.66
2016-04-10T11:41:16.029Z,23.71
2016-04-10T11:42:16.047Z,23.7
2016-04-10T11:43:16.050Z,23.64
2016-04-10T11:44:16.052Z,23.66
2016-04-10T11:45:16.071Z,23.63
2016-04-10T11:46:16.089Z,23.6
2016-04-10T11:47:16.092Z,23.59
2016-04-10T11:48:16.080Z,23.67
2016-04-10T11:49:16.082Z,23.62
2016-04-10T11:50:16.085Z,23.67
2016-04-10T11:51:16.103Z,23.74
2016-04-10T11:52:16.105Z,23.75
2016-04-10T11:53:16.108Z,23.72
2016-04-10T11:54:16.126Z,23.77
2016-04-10T11:55:16.129Z,23.75
2016-04-10T11:56:16.132Z,23.77
2016-04-10T11:57:16.134Z,23.75
2016-04-10T11:58:16.152Z,23.75
2016-04-10T11:59:16.155Z,23.74
2016-04-10T12:00:16.142Z,23.84
2016-04-10T12:01:16.160Z,23.75
2016-04-10T12:02:16.163Z,23.87
2016-04-10T12:03:16.166Z,23.93
2016-04-10T12:04:16.185Z,23.92
2016-04-10T12:05:16.187Z,24
2016-04-10T12:06:16.190Z,23.84
2016-04-10T12:07:16.036Z,23.82
2016-04-10T12:08:16.226Z,23.75
2016-04-10T12:09:16.214Z,23.79
2016-04-10T12:10:16.216Z,23.75
2016-04-10T12:11:16.234Z,23.81
2016-04-10T12:12:16.236Z,23.77
2016-04-10T12:13:16.239Z,23.78
2016-04-10T12:14:16.242Z,23.79
2016-04-10T12:15:16.244Z,23.75
2016-04-10T12:16:16.280Z,23.79
2016-04-10T12:17:16.266Z,23.81
2016-04-10T12:18:16.285Z,23.77
2016-04-10T12:19:16.288Z,23.77
2016-04-10T12:20:16.274Z,23.79
2016-04-10T12:21:16.293Z,23.78
2016-04-10T12:22:16.310Z,23.81
2016-04-10T12:23:16.314Z,23.77
2016-04-10T12:24:16.316Z,23.74
2016-04-10T12:25:16.319Z,23.82
2016-04-10T12:26:16.322Z,23.75
2016-04-10T12:27:16.325Z,23.77
2016-04-10T12:28:16.343Z,23.81
2016-04-10T12:29:16.346Z,23.78
2016-04-10T12:30:16.364Z,23.79
2016-04-10T12:31:16.351Z,23.82
2016-04-10T12:32:16.354Z,23.84
2016-04-10T12:33:16.371Z,23.89
2016-04-10T12:34:16.374Z,23.94
2016-04-10T12:35:16.392Z,23.89
2016-04-10T12:36:16.411Z,23.87
2016-04-10T12:37:16.414Z,24.03
2016-04-10T12:38:16.416Z,23.9
2016-04-10T12:39:16.403Z,24.07
2016-04-10T12:40:16.406Z,24.08
2016-04-10T12:41:16.425Z,24.04
2016-04-10T12:42:16.428Z,24.04
2016-04-10T12:43:16.445Z,24.11
2016-04-10T12:44:16.448Z,24.24
2016-04-10T12:45:16.450Z,24.19
2016-04-10T12:46:16.453Z,24.3
2016-04-10T12:47:16.472Z,24.19
2016-04-10T12:48:16.474Z,24.18
2016-04-10T12:49:16.477Z,24.22
2016-04-10T12:50:16.495Z,24.15
2016-04-10T12:51:16.498Z,24.17
2016-04-10T12:52:16.501Z,24.32
2016-04-10T12:53:16.504Z,24.15
2016-04-10T12:54:16.507Z,24.17
2016-04-10T12:55:16.525Z,24.24